Terminal Aerodrome Forecast
Issued by NWS Charleston, WV

Current Version | Previous Version | Graphics & Text | Print | Product List | Glossary On
Versions: 1 2 3 4 5 6 7 8 9 10 11 12 13 14 15 16 17 18 19 20 21 22 23 24 25 26
000
FTUS41 KRLX 212234 AAB
TAFEKN
TAF AMD
KEKN 212234Z 2123/2218 18008KT P6SM BKN025
     FM212305 18004KT P6SM SCT030 BKN040
     FM220500 21005KT P6SM BKN025
     FM221000 00000KT P6SM BKN045
     FM221700 18009KT P6SM BKN150=

USA.gov is the U.S. government's official web portal to all federal, state and local government web resources and services.